createdAt,value
2023-03-18T02:11:41.349Z,188.23
2023-03-18T03:55:44.695Z,162.20
2023-03-18T03:59:44.912Z,158.50
2023-03-18T04:03:45.608Z,170.26
2023-03-18T04:07:45.341Z,158.32
2023-03-18T04:11:45.527Z,154.95
2023-03-18T04:15:45.717Z,164.42
2023-03-18T04:19:45.852Z,154.43
2023-03-18T04:23:46.076Z,151.63
2023-03-18T04:27:46.246Z,155.37
2023-03-18T04:31:46.527Z,158.82
2023-03-18T04:35:46.764Z,153.80
2023-03-18T04:39:46.860Z,147.78
2023-03-18T04:43:47.049Z,146.32
2023-03-18T04:47:47.231Z,147.11
2023-03-18T04:51:47.421Z,141.75
2023-03-18T04:55:47.605Z,143.87
2023-03-18T04:59:47.794Z,160.82
2023-03-18T05:03:48.126Z,153.26
2023-03-18T05:07:48.175Z,140.77
2023-03-18T05:11:48.353Z,160.04
2023-03-18T05:15:48.558Z,148.25
2023-03-18T05:19:48.768Z,153.08
2023-03-18T05:23:48.952Z,155.70
2023-03-18T05:27:49.177Z,157.11
2023-03-18T05:31:49.415Z,164.69
2023-03-18T05:35:49.574Z,160.77
2023-03-18T05:39:50.574Z,163.44
2023-03-18T05:43:49.954Z,170.01
2023-03-18T05:47:50.190Z,167.86
2023-03-18T05:51:50.352Z,164.78
2023-03-18T05:55:50.550Z,156.45
2023-03-18T05:59:50.743Z,168.28
2023-03-18T06:03:51.105Z,161.30
2023-03-18T06:07:51.579Z,163.74
2023-03-18T06:11:51.598Z,165.45
2023-03-18T06:15:51.499Z,156.95
2023-03-18T06:19:52.090Z,149.20
2023-03-18T06:23:51.884Z,155.81
2023-03-18T06:27:52.093Z,157.38
2023-03-18T06:31:52.390Z,162.90
2023-03-18T06:35:52.504Z,155.80
2023-03-18T06:39:52.637Z,154.42
2023-03-18T06:43:52.809Z,156.32
2023-03-18T06:47:52.971Z,156.95
2023-03-18T06:51:53.131Z,158.90
2023-03-18T06:55:53.284Z,168.87
2023-03-18T06:59:53.437Z,170.78
2023-03-18T07:03:53.585Z,168.71
2023-03-18T07:07:53.730Z,158.80
2023-03-18T07:11:53.898Z,146.44
2023-03-18T07:15:54.031Z,148.22
2023-03-18T07:19:54.126Z,147.35
2023-03-18T07:23:54.238Z,144.28
2023-03-18T07:59:54.988Z,164.96
2023-03-18T08:07:54.925Z,156.87
2023-03-18T08:11:54.964Z,163.65
2023-03-18T08:15:55.088Z,151.27
2023-03-18T08:19:55.084Z,149.12
2023-03-18T08:23:55.090Z,142.00
2023-03-18T08:27:55.089Z,139.00
2023-03-18T08:31:55.224Z,140.35
2023-03-18T08:35:55.269Z,129.97
2023-03-18T08:39:55.184Z,128.79
2023-03-18T08:43:55.194Z,128.63
2023-03-18T08:47:55.210Z,120.97
2023-03-18T08:51:55.209Z,108.12
2023-03-18T08:55:55.214Z,107.77
2023-03-18T08:59:55.221Z,114.69
2023-03-18T09:03:55.234Z,114.69
2023-03-18T09:07:55.214Z,111.13
2023-03-18T09:11:55.229Z,113.77
2023-03-18T09:15:55.236Z,100.89
2023-03-18T09:19:55.215Z,103.01
2023-03-18T09:23:55.214Z,98.57
2023-03-18T09:27:55.286Z,86.44
2023-03-18T09:31:55.200Z,76.43
2023-03-18T09:35:55.177Z,84.29
2023-03-18T09:39:55.182Z,73.36
2023-03-18T09:43:55.148Z,76.48
2023-03-18T09:47:55.169Z,69.75
2023-03-18T09:51:55.203Z,74.53
2023-03-18T09:55:55.133Z,72.26
2023-03-18T09:59:55.104Z,53.67
2023-03-18T10:03:55.146Z,75.55
2023-03-18T10:07:55.100Z,68.95
2023-03-18T10:11:55.041Z,52.89
2023-03-18T10:15:55.056Z,69.33
2023-03-18T10:19:55.025Z,37.14
2023-03-18T10:27:54.989Z,86.92
2023-03-18T10:31:55.019Z,42.22
2023-03-18T10:35:55.056Z,29.94
2023-03-18T10:39:55.013Z,45.37
2023-03-18T10:43:55.022Z,33.38
2023-03-18T10:51:54.986Z,26.55
2023-03-18T10:55:57.456Z,39.36
2023-03-18T10:59:55.155Z,51.14
2023-03-18T11:03:55.121Z,32.80
2023-03-18T11:07:55.129Z,25.91
2023-03-18T13:23:54.551Z,33.56
2023-03-18T13:27:54.520Z,38.70
2023-03-18T13:31:54.452Z,29.56
2023-03-18T13:35:54.584Z,42.32
2023-03-18T13:39:54.402Z,50.50
2023-03-18T13:43:54.408Z,40.72
2023-03-18T13:47:54.440Z,34.79
2023-03-18T13:51:54.456Z,45.36
2023-03-18T13:55:54.541Z,32.27
2023-03-18T17:07:54.789Z,149.83
2023-03-18T17:11:54.789Z,177.48
2023-03-18T17:15:54.783Z,163.05
2023-03-18T17:19:54.831Z,167.49
2023-03-18T17:23:54.863Z,180.26
2023-03-18T17:27:54.901Z,178.80
2023-03-18T17:31:54.957Z,157.22
2023-03-18T17:35:55.064Z,169.87
2023-03-18T17:39:55.132Z,161.86
2023-03-18T17:43:55.209Z,188.72
2023-03-18T17:47:55.272Z,151.58
2023-03-18T17:51:55.313Z,151.24
2023-03-18T17:55:55.370Z,157.96
2023-03-18T17:59:55.464Z,178.41
2023-03-18T18:03:55.497Z,184.18
2023-03-18T18:07:55.556Z,192.93
2023-03-18T18:11:55.660Z,178.25
2023-03-18T18:15:55.758Z,210.73
2023-03-18T18:19:55.786Z,249.25
2023-03-18T18:23:55.991Z,219.56
2023-03-18T18:27:56.020Z,240.70
2023-03-18T18:31:56.105Z,242.79
2023-03-18T22:52:02.981Z,204.31
2023-03-18T22:56:03.094Z,204.67
2023-03-18T23:00:03.281Z,210.40
2023-03-18T23:04:03.416Z,211.57
2023-03-18T23:08:03.583Z,210.17
2023-03-18T23:12:03.745Z,207.05
2023-03-18T23:16:03.930Z,206.17
2023-03-18T23:20:04.102Z,221.28
2023-03-18T23:24:04.278Z,235.82
2023-03-18T23:28:04.459Z,234.14
2023-03-18T23:32:04.621Z,233.45
2023-03-18T23:36:04.870Z,231.82
2023-03-18T23:40:04.977Z,229.23
2023-03-18T23:44:05.134Z,228.21
2023-03-18T23:48:05.301Z,224.36
2023-03-18T23:52:05.495Z,219.67
2023-03-18T23:56:05.675Z,213.18
